Time;durP1;ratioP1;P1;durP2;ratioP2;P2;SDS_P1;SDS_P2;PMS_P1;PMS_P2;Temp;Humidity;BMP_temperature;BMP_pressure;BME280_temperature;BME280_humidity;BME280_pressure;Samples;Min_cycle;Max_cycle;Signal;HPM_P1;HPM_P2
2023/08/03 00:02:34;;;;;;;5.63;2.27;;;;;;;23.36;48.78;97362.63;6893039;28;20459;-81
2023/08/03 00:05:55;;;;;;;6.37;2.53;;;;;;;23.41;48.78;97354.19;6892685;28;20218;-80
2023/08/03 00:09:17;;;;;;;9.20;2.60;;;;;;;23.33;48.26;97363.25;6893178;28;20232;-81
2023/08/03 00:12:40;;;;;;;6.27;2.20;;;;;;;23.48;49.08;97363.59;6892330;28;20373;-81
2023/08/03 00:16:01;;;;;;;3.83;2.43;;;;;;;23.37;49.06;97365.03;6892218;28;20200;-81
2023/08/03 00:19:23;;;;;;;5.47;2.37;;;;;;;23.62;48.58;97346.94;6893866;28;20230;-81
2023/08/03 00:22:46;;;;;;;5.30;2.17;;;;;;;23.78;49.19;97370.09;6896840;28;20290;-82
2023/08/03 00:26:07;;;;;;;3.83;2.00;;;;;;;23.68;49.46;97373.16;6907032;28;20209;-82
2023/08/03 00:29:30;;;;;;;9.73;2.93;;;;;;;23.47;50.30;97366.66;6899012;28;20306;-81
2023/08/03 00:32:52;;;;;;;4.80;2.27;;;;;;;23.98;49.26;97375.78;6893729;28;20295;-81
2023/08/03 00:36:13;;;;;;;7.73;2.50;;;;;;;23.62;49.92;97382.72;6894987;28;20255;-82
2023/08/03 00:39:35;;;;;;;7.30;2.63;;;;;;;23.51;50.19;97376.72;6894258;28;20235;-82
2023/08/03 00:42:57;;;;;;;5.90;2.30;;;;;;;23.90;49.15;97365.56;6901413;28;20230;-83
2023/08/03 00:46:20;;;;;;;7.00;2.53;;;;;;;23.68;49.55;97364.91;6904367;28;20672;-83
2023/08/03 00:49:42;;;;;;;4.07;2.23;;;;;;;23.32;50.04;97359.72;6903331;28;20296;-83
2023/08/03 00:53:03;;;;;;;8.10;2.70;;;;;;;23.00;51.04;97321.59;6905886;28;20282;-83
2023/08/03 00:56:25;;;;;;;7.20;2.50;;;;;;;22.48;51.92;97360.22;6904123;28;20633;-82
2023/08/03 00:59:46;;;;;;;5.50;2.40;;;;;;;23.41;49.95;97359.69;6898014;28;20227;-81
2023/08/03 01:03:09;;;;;;;9.07;2.73;;;;;;;22.99;50.96;97343.91;6894084;28;20291;-81
2023/08/03 01:06:31;;;;;;;6.83;2.50;;;;;;;22.96;51.42;97356.34;6893427;28;20276;-81
2023/08/03 01:09:52;;;;;;;4.20;1.93;;;;;;;22.72;51.25;97355.94;6892863;28;20290;-81
2023/08/03 01:13:14;;;;;;;5.80;2.50;;;;;;;23.07;50.29;97373.38;6892147;28;20235;-81
2023/08/03 01:16:35;;;;;;;3.93;2.33;;;;;;;23.02;50.00;97371.56;6891656;28;20299;-81
2023/08/03 01:19:58;;;;;;;10.93;2.77;;;;;;;23.11;50.23;97364.16;6891512;28;20782;-81
2023/08/03 01:23:21;;;;;;;5.37;2.20;;;;;;;22.97;50.00;97363.50;6891515;28;20835;-80
2023/08/03 01:26:44;;;;;;;7.77;2.80;;;;;;;23.01;50.15;97345.22;6890346;28;20301;-81
2023/08/03 01:30:06;;;;;;;4.57;2.40;;;;;;;22.75;50.50;97344.34;6890849;28;20225;-81
2023/08/03 01:33:28;;;;;;;6.10;2.27;;;;;;;22.75;50.08;97327.03;6883722;28;20289;-81
2023/08/03 01:36:49;;;;;;;6.93;2.53;;;;;;;23.00;50.18;97373.81;6891284;28;20252;-81
2023/08/03 01:40:14;;;;;;;10.47;2.73;;;;;;;22.58;50.81;97363.50;6891941;28;20286;-81
2023/08/03 01:43:35;;;;;;;7.77;3.23;;;;;;;22.82;50.57;97363.09;6891614;28;20720;-80
2023/08/03 01:46:58;;;;;;;7.73;2.97;;;;;;;22.54;51.31;97354.25;6889370;28;20271;-83
2023/08/03 01:50:19;;;;;;;6.90;2.80;;;;;;;22.85;50.75;97356.97;6889114;28;20323;-81
2023/08/03 01:53:41;;;;;;;6.57;2.47;;;;;;;22.78;50.34;97351.13;6889460;28;20676;-81
2023/08/03 01:57:04;;;;;;;6.83;2.33;;;;;;;22.46;50.45;97346.78;6888725;28;20303;-81
2023/08/03 02:00:26;;;;;;;10.07;2.60;;;;;;;22.75;49.94;97360.81;6889481;28;20268;-81
2023/08/03 02:03:47;;;;;;;5.47;2.20;;;;;;;22.08;49.97;97373.03;6886925;28;20333;-82
2023/08/03 02:07:11;;;;;;;6.43;2.13;;;;;;;22.36;48.92;97366.25;6900350;28;20278;-83
2023/08/03 02:10:32;;;;;;;6.40;2.07;;;;;;;22.19;48.71;97379.88;6901946;28;20322;-81
2023/08/03 02:13:55;;;;;;;6.20;2.23;;;;;;;22.38;46.98;97386.00;6895578;28;20348;-81
2023/08/03 02:17:16;;;;;;;3.70;1.80;;;;;;;22.05;46.96;97313.28;6894479;28;20370;-81
2023/08/03 02:20:38;;;;;;;6.73;1.93;;;;;;;22.96;46.18;97383.03;6895459;28;20316;-82
2023/08/03 02:23:59;;;;;;;6.83;2.03;;;;;;;22.17;46.94;97386.81;6888502;28;20656;-80
2023/08/03 02:27:21;;;;;;;5.70;2.20;;;;;;;21.98;47.27;97386.19;6892265;28;20227;-81
2023/08/03 02:30:44;;;;;;;7.03;2.40;;;;;;;22.60;46.41;97402.44;6920781;28;20371;-82
2023/08/03 02:34:05;;;;;;;8.13;2.40;;;;;;;23.01;45.80;97400.19;6921127;28;20218;-81
2023/08/03 02:37:27;;;;;;;7.00;2.37;;;;;;;22.65;45.93;97358.34;6935310;28;20212;-81
2023/08/03 02:40:48;;;;;;;9.73;2.40;;;;;;;22.32;46.96;97398.25;6930444;28;20230;-81
2023/08/03 02:44:10;;;;;;;4.70;1.90;;;;;;;22.46;46.87;97398.16;6922898;28;20305;-81
2023/08/03 02:47:33;;;;;;;9.23;2.20;;;;;;;22.98;45.84;97398.09;6923096;28;20291;-81
2023/08/03 02:50:54;;;;;;;6.20;1.90;;;;;;;22.60;46.44;97405.19;6922685;28;20321;-81
2023/08/03 02:54:16;;;;;;;3.43;2.40;;;;;;;22.27;46.88;97398.38;6922573;28;20324;-80
2023/08/03 02:57:37;;;;;;;6.97;1.97;;;;;;;22.81;46.16;97395.28;6922294;28;20774;-81
2023/08/03 03:01:00;;;;;;;6.60;2.50;;;;;;;22.64;46.32;97391.63;6922026;28;20268;-80
2023/08/03 03:04:22;;;;;;;6.77;2.10;;;;;;;22.40;47.07;97419.44;6919990;28;20214;-81
2023/08/03 03:07:44;;;;;;;6.50;2.57;;;;;;;22.06;48.11;97418.41;6893946;28;20253;-82
2023/08/03 03:11:05;;;;;;;7.03;2.20;;;;;;;21.67;48.51;97364.16;6894939;28;20718;-80
2023/08/03 03:14:27;;;;;;;6.40;2.50;;;;;;;21.77;48.51;97401.53;6894270;28;20300;-81
2023/08/03 03:17:48;;;;;;;7.10;2.40;;;;;;;22.42;46.77;97389.72;6892442;28;20683;-81
2023/08/03 03:21:11;;;;;;;6.63;2.43;;;;;;;22.06;47.69;97430.19;6902785;28;20256;-82
2023/08/03 03:24:33;;;;;;;6.00;2.47;;;;;;;21.67;48.63;97407.25;6903209;28;20683;-81
2023/08/03 03:27:55;;;;;;;5.93;2.43;;;;;;;22.16;47.43;97427.19;6894752;28;20229;-82
2023/08/03 03:31:16;;;;;;;8.10;2.60;;;;;;;22.10;47.59;97424.88;6894423;28;20319;-81
2023/08/03 03:34:38;;;;;;;5.57;2.93;;;;;;;22.28;47.45;97434.84;6894858;28;20204;-81
2023/08/03 03:38:01;;;;;;;7.20;2.73;;;;;;;22.39;47.00;97425.22;6893167;28;20305;-81
2023/08/03 03:41:22;;;;;;;6.97;2.37;;;;;;;22.02;47.90;97436.59;6893399;28;20232;-81
2023/08/03 03:44:44;;;;;;;7.93;2.83;;;;;;;22.20;47.26;97428.16;6893558;28;20340;-81
2023/08/03 03:48:05;;;;;;;7.60;3.00;;;;;;;22.00;48.01;97447.06;6892870;28;20310;-81
2023/08/03 03:51:27;;;;;;;7.77;2.70;;;;;;;22.39;46.62;97433.47;6893193;28;20313;-80
2023/08/03 03:54:49;;;;;;;8.97;2.60;;;;;;;22.34;46.91;97428.94;6893050;28;20684;-80
2023/08/03 03:58:11;;;;;;;4.87;1.90;;;;;;;22.75;45.57;97415.78;6891492;28;20289;-80
2023/08/03 04:01:32;;;;;;;7.93;2.83;;;;;;;21.89;47.74;97434.72;6890423;28;20235;-81
2023/08/03 04:04:54;;;;;;;5.40;2.03;;;;;;;22.38;46.74;97437.34;6890720;28;20299;-80
2023/08/03 04:08:15;;;;;;;5.83;2.23;;;;;;;22.56;46.33;97437.19;6890298;28;20295;-80
2023/08/03 04:11:38;;;;;;;5.03;1.87;;;;;;;22.15;46.52;97449.47;6890321;28;20364;-80
2023/08/03 04:15:00;;;;;;;6.53;2.10;;;;;;;22.58;46.03;97439.59;6890787;28;20212;-81
2023/08/03 04:18:21;;;;;;;7.50;2.17;;;;;;;22.39;46.39;97453.53;6889930;28;20289;-81
2023/08/03 04:21:43;;;;;;;8.43;2.17;;;;;;;22.78;45.63;97458.31;6890269;28;20301;-80
2023/08/03 04:25:05;;;;;;;4.93;2.77;;;;;;;22.68;45.32;97458.56;6887644;28;20216;-80
2023/08/03 04:28:28;;;;;;;5.43;1.87;;;;;;;22.71;44.98;97475.22;6889322;28;20277;-81
2023/08/03 04:31:49;;;;;;;6.37;2.33;;;;;;;22.44;45.08;97491.88;6890274;28;20360;-80
2023/08/03 04:35:11;;;;;;;10.20;2.33;;;;;;;22.52;45.27;97480.13;6889763;28;20359;-80
2023/08/03 04:38:32;;;;;;;10.53;3.27;;;;;;;22.74;44.36;97501.28;6889415;28;20208;-80
2023/08/03 04:41:54;;;;;;;5.40;1.97;;;;;;;22.88;44.63;97502.00;6890149;28;20366;-80
2023/08/03 04:45:17;;;;;;;4.43;1.60;;;;;;;22.58;44.81;97500.03;6890540;28;20270;-81
2023/08/03 04:48:39;;;;;;;4.83;1.40;;;;;;;22.73;44.93;97510.66;6889425;28;20371;-81
2023/08/03 04:52:00;;;;;;;4.80;2.00;;;;;;;22.30;45.93;97515.81;6889004;28;20253;-80
2023/08/03 04:55:22;;;;;;;6.23;1.83;;;;;;;22.37;45.66;97512.63;6888869;28;20299;-80
2023/08/03 04:58:43;;;;;;;3.13;1.70;;;;;;;22.15;45.75;97444.78;6888689;28;20287;-81
2023/08/03 05:02:06;;;;;;;6.20;1.73;;;;;;;22.61;45.08;97500.22;6888684;28;20406;-81
2023/08/03 05:05:28;;;;;;;5.27;1.67;;;;;;;21.97;46.75;97506.16;6886540;28;20345;-80
2023/08/03 05:08:50;;;;;;;2.17;1.40;;;;;;;22.22;47.07;97532.19;6900477;28;20205;-80
2023/08/03 05:12:12;;;;;;;2.07;1.20;;;;;;;21.36;48.72;97537.91;6915923;28;20732;-80
2023/08/03 05:15:33;;;;;;;4.30;1.77;;;;;;;21.87;48.27;97550.28;6916073;28;20209;-81
2023/08/03 05:18:56;;;;;;;6.63;1.60;;;;;;;22.08;47.77;97553.41;6916900;28;20292;-81
2023/08/03 05:22:17;;;;;;;2.50;1.30;;;;;;;21.88;48.10;97545.59;6920373;28;20256;-82
2023/08/03 05:25:39;;;;;;;4.27;1.40;;;;;;;22.40;47.16;97554.00;6920034;28;20354;-80
2023/08/03 05:29:01;;;;;;;2.00;1.20;;;;;;;22.44;47.18;97560.56;6906245;28;20237;-80
2023/08/03 05:32:25;;;;;;;4.90;1.77;;;;;;;22.45;47.18;97561.34;6892552;28;20853;-80
2023/08/03 05:35:49;;;;;;;3.73;1.70;;;;;;;22.55;46.60;97528.94;6895384;28;20203;-80
2023/08/03 05:39:11;;;;;;;3.23;0.90;;;;;;;21.77;48.54;97574.41;6917732;28;20347;-80
2023/08/03 05:42:37;;;;;;;2.70;1.40;;;;;;;21.59;48.30;97548.66;6921868;28;20388;-80
2023/08/03 05:46:02;;;;;;;3.33;1.70;;;;;;;21.57;48.96;97583.00;6936970;28;20737;-80
2023/08/03 05:49:25;;;;;;;4.43;2.00;;;;;;;22.18;47.21;97581.44;6912157;28;20247;-80
2023/08/03 05:52:50;;;;;;;4.03;1.43;;;;;;;21.90;48.18;97592.78;6899965;28;20305;-80
2023/08/03 05:56:12;;;;;;;2.33;1.40;;;;;;;21.99;48.28;97569.78;6897835;28;20670;-80
2023/08/03 05:59:34;;;;;;;3.00;1.70;;;;;;;22.38;47.39;97589.22;6898714;28;20219;-80
2023/08/03 06:02:57;;;;;;;3.53;1.67;;;;;;;22.62;46.86;97569.72;6898687;28;20725;-80
2023/08/03 06:06:20;;;;;;;8.43;1.73;;;;;;;22.82;46.40;97608.50;6897489;28;20220;-80
2023/08/03 06:09:43;;;;;;;3.60;1.37;;;;;;;22.44;47.12;97598.19;6897940;28;20253;-81
2023/08/03 06:13:05;;;;;;;4.53;1.70;;;;;;;22.31;47.36;97605.28;6901933;28;20200;-80
2023/08/03 06:16:27;;;;;;;2.57;1.50;;;;;;;22.37;46.87;97603.25;6898432;28;20270;-82
2023/08/03 06:19:48;;;;;;;6.40;2.00;;;;;;;22.88;45.95;97623.75;6896444;28;20239;-82
2023/08/03 06:23:13;;;;;;;4.47;1.60;;;;;;;22.74;45.87;97609.28;6896449;28;20640;-81
2023/08/03 06:26:37;;;;;;;2.40;1.40;;;;;;;23.14;45.43;97613.72;6890958;28;20649;-81
2023/08/03 06:29:59;;;;;;;4.30;1.47;;;;;;;24.18;42.33;97594.66;6891181;28;20226;-82
2023/08/03 06:33:22;;;;;;;2.40;1.77;;;;;;;23.41;44.73;97608.09;6895808;28;20288;-85
2023/08/03 06:36:44;;;;;;;2.50;1.57;;;;;;;24.46;42.65;97604.22;6895172;28;20210;-79
2023/08/03 06:40:06;;;;;;;4.47;1.40;;;;;;;25.06;40.96;97605.03;6895571;28;20284;-81
2023/08/03 06:43:29;;;;;;;5.87;2.57;;;;;;;24.99;40.88;97622.09;6900794;28;20317;-81
2023/08/03 06:46:52;;;;;;;3.47;1.63;;;;;;;24.75;40.37;97630.06;6896047;28;20198;-81
2023/08/03 06:50:13;;;;;;;3.00;1.40;;;;;;;24.08;40.62;97628.00;6895306;28;20229;-81
2023/08/03 06:53:35;;;;;;;2.90;1.40;;;;;;;25.06;39.39;97629.88;6896251;28;20207;-82
2023/08/03 06:56:56;;;;;;;2.70;1.80;;;;;;;24.73;39.25;97634.28;6896145;28;20228;-82
2023/08/03 07:00:19;;;;;;;2.53;1.30;;;;;;;25.65;38.07;97634.50;6895978;28;20280;-82
2023/08/03 07:03:41;;;;;;;3.33;1.57;;;;;;;25.31;36.48;97613.31;6893895;28;20314;-86
2023/08/03 07:07:02;;;;;;;2.87;1.33;;;;;;;24.79;39.19;97644.00;6902076;28;20216;-84
2023/08/03 07:10:25;;;;;;;2.87;1.43;;;;;;;26.24;36.53;97647.25;6904053;28;20228;-84
2023/08/03 07:13:47;;;;;;;3.03;1.50;;;;;;;26.49;35.89;97647.06;6897050;28;20290;-83
2023/08/03 07:17:09;;;;;;;3.40;1.47;;;;;;;25.66;36.05;97652.69;6889244;28;20302;-81
2023/08/03 07:20:31;;;;;;;3.23;1.30;;;;;;;26.00;35.17;97661.66;6896245;28;20251;-82
2023/08/03 07:23:52;;;;;;;3.57;1.17;;;;;;;25.59;35.54;97668.94;6895946;28;20267;-82
2023/08/03 07:27:15;;;;;;;3.53;1.60;;;;;;;25.36;36.23;97668.31;6891484;28;20261;-81
2023/08/03 07:30:37;;;;;;;4.07;1.30;;;;;;;25.33;37.54;97666.25;6884680;28;20373;-82
2023/08/03 07:33:59;;;;;;;1.60;1.30;;;;;;;25.77;35.51;97659.47;6896047;28;20215;-82
2023/08/03 07:37:21;;;;;;;3.07;1.40;;;;;;;25.87;35.53;97668.19;6889128;28;20294;-82
2023/08/03 07:40:42;;;;;;;3.03;1.30;;;;;;;25.66;35.44;97660.97;6894067;28;20373;-82
2023/08/03 07:44:04;;;;;;;2.10;1.37;;;;;;;26.09;35.04;97675.44;6893472;28;20309;-83
2023/08/03 07:47:26;;;;;;;3.43;1.50;;;;;;;25.69;35.96;97688.72;6894021;28;20200;-82
2023/08/03 07:50:49;;;;;;;3.60;1.57;;;;;;;26.23;35.67;97670.47;6894690;28;20266;-82
2023/08/03 07:54:10;;;;;;;3.73;1.33;;;;;;;26.14;35.17;97691.84;6895372;28;20666;-82
2023/08/03 07:57:33;;;;;;;3.83;1.97;;;;;;;25.09;37.49;97674.19;6880502;28;20279;-82
2023/08/03 08:01:05;;;;;;;3.00;1.40;;;;;;;25.57;35.96;97671.19;6894787;28;20625;-81
2023/08/03 08:04:26;;;;;;;2.47;1.40;;;;;;;25.44;35.85;97656.47;6893674;28;20227;-82
2023/08/03 08:07:49;;;;;;;1.83;1.27;;;;;;;25.64;35.77;97677.84;6888416;28;20275;-82
2023/08/03 08:11:12;;;;;;;4.00;1.80;;;;;;;25.70;36.86;97651.69;6893125;28;20256;-82
2023/08/03 08:14:34;;;;;;;2.50;1.37;;;;;;;26.04;35.80;97670.91;6893731;28;20204;-82
2023/08/03 08:17:55;;;;;;;2.80;1.50;;;;;;;26.76;35.46;97676.19;6884311;28;20558;-83
2023/08/03 08:21:17;;;;;;;2.87;1.33;;;;;;;26.28;35.28;97676.66;6893641;28;20352;-82
2023/08/03 08:24:39;;;;;;;2.10;1.40;;;;;;;25.80;36.32;97684.47;6893612;28;20313;-82
2023/08/03 08:28:01;;;;;;;1.83;1.27;;;;;;;25.43;37.11;97660.34;6887478;28;20857;-83
2023/08/03 08:31:22;;;;;;;1.93;1.43;;;;;;;25.21;37.27;97692.81;6894106;28;20288;-83
2023/08/03 08:34:44;;;;;;;2.43;1.20;;;;;;;25.32;37.09;97681.16;6892529;28;20211;-82
2023/08/03 08:38:05;;;;;;;1.80;1.13;;;;;;;24.91;37.60;97671.75;6893393;28;20199;-82
2023/08/03 08:41:29;;;;;;;2.50;1.33;;;;;;;25.17;37.57;97683.56;6893980;28;20267;-83
2023/08/03 08:44:51;;;;;;;2.80;1.10;;;;;;;24.89;38.16;97698.84;6893550;28;20234;-83
2023/08/03 08:48:12;;;;;;;1.73;1.20;;;;;;;24.70;39.18;97682.59;6893268;28;20297;-82
2023/08/03 08:51:34;;;;;;;2.87;1.30;;;;;;;25.18;38.22;97687.97;6894700;28;20701;-82
2023/08/03 08:55:11;;;;;;;2.03;1.20;;;;;;;24.50;39.06;97691.47;6894881;28;20413;-82
2023/08/03 08:58:33;;;;;;;2.67;1.10;;;;;;;24.99;38.36;97701.25;6894090;28;20286;-83
2023/08/03 09:01:56;;;;;;;5.17;1.53;;;;;;;24.37;39.70;97683.31;6894346;28;20317;-82
2023/08/03 09:05:19;;;;;;;3.03;1.33;;;;;;;24.80;39.01;97684.22;6894871;28;20221;-83
2023/08/03 09:08:51;;;;;;;1.93;1.10;;;;;;;25.78;36.73;97703.28;6892256;28;20283;-82
2023/08/03 09:12:24;;;;;;;3.43;0.90;;;;;;;25.24;37.27;97717.06;6888278;28;20713;-83
2023/08/03 09:15:47;;;;;;;2.13;1.40;;;;;;;24.92;38.18;97726.59;6889192;28;20201;-82
2023/08/03 09:19:08;;;;;;;2.23;1.10;;;;;;;24.89;38.24;97723.66;6884386;28;20210;-82
2023/08/03 09:22:30;;;;;;;2.70;1.30;;;;;;;25.02;38.18;97715.22;6893660;28;20263;-83
2023/08/03 09:25:53;;;;;;;2.00;1.17;;;;;;;25.26;38.40;97723.03;6893321;28;20736;-82
2023/08/03 09:29:14;;;;;;;3.47;1.30;;;;;;;25.24;38.43;97730.84;6887653;28;20222;-82
2023/08/03 09:32:37;;;;;;;2.50;1.30;;;;;;;25.11;37.44;97746.38;6866722;28;20287;-82
2023/08/03 09:36:05;;;;;;;2.77;1.20;;;;;;;25.02;37.87;97729.00;6864800;28;20286;-83
2023/08/03 09:39:32;;;;;;;2.83;1.30;;;;;;;25.72;37.59;97729.47;6865980;28;20285;-84
2023/08/03 09:42:54;;;;;;;2.27;1.20;;;;;;;25.66;38.35;97733.53;6885513;28;20215;-84
2023/08/03 09:46:16;;;;;;;1.20;0.83;;;;;;;26.15;36.82;97735.72;6895481;28;20203;-83
2023/08/03 09:49:39;;;;;;;2.23;1.47;;;;;;;26.37;36.75;97738.19;6896496;28;20298;-82
2023/08/03 09:53:02;;;;;;;2.53;1.30;;;;;;;25.71;37.35;97747.19;6899506;28;20203;-84
2023/08/03 09:56:25;;;;;;;1.80;1.50;;;;;;;26.26;37.04;97752.75;6911834;28;20207;-86
2023/08/03 09:59:49;;;;;;;3.27;1.30;;;;;;;25.94;37.78;97717.41;6913327;28;20239;-84
2023/08/03 10:03:12;;;;;;;2.47;2.00;;;;;;;26.24;37.82;97738.44;6914656;28;20256;-87
2023/08/03 10:06:38;;;;;;;7.17;1.97;;;;;;;26.07;35.75;97681.28;6909546;28;20218;-83
2023/08/03 10:10:03;;;;;;;2.13;1.33;;;;;;;25.68;37.15;97752.53;6892704;28;20234;-82
2023/08/03 10:13:26;;;;;;;3.33;1.40;;;;;;;25.50;38.02;97757.28;6890812;28;20238;-81
2023/08/03 10:16:47;;;;;;;2.60;1.10;;;;;;;25.76;36.70;97727.69;6889543;28;20306;-85
2023/08/03 10:20:10;;;;;;;1.90;1.00;;;;;;;25.62;37.63;97751.91;6889623;28;20244;-82
2023/08/03 10:23:35;;;;;;;2.50;0.97;;;;;;;25.88;37.46;97758.19;6889815;28;20224;-82
2023/08/03 10:27:17;;;;;;;2.30;1.30;;;;;;;26.15;37.00;97738.47;6881498;28;20201;-82
2023/08/03 10:31:04;;;;;;;3.10;1.30;;;;;;;25.87;37.83;97756.56;6868618;28;20237;-83
2023/08/03 10:34:26;;;;;;;2.17;1.27;;;;;;;25.89;36.71;97761.78;6887759;28;20667;-82
2023/08/03 10:37:50;;;;;;;1.20;0.87;;;;;;;25.54;37.20;97752.72;6897559;28;20205;-82
2023/08/03 10:41:22;;;;;;;2.83;1.17;;;;;;;25.47;37.98;97754.34;6899276;28;20326;-82
2023/08/03 10:44:44;;;;;;;2.17;0.97;;;;;;;26.18;37.22;97784.78;6898477;28;20267;-82
2023/08/03 10:48:30;;;;;;;1.10;1.00;;;;;;;26.32;37.30;97766.03;6895294;28;20298;-81
2023/08/03 10:51:53;;;;;;;1.87;1.20;;;;;;;26.67;36.50;97772.25;6878875;28;20313;-81
2023/08/03 10:55:24;;;;;;;1.60;1.03;;;;;;;25.94;37.22;97767.13;6893424;28;20286;-81
2023/08/03 10:58:50;;;;;;;1.60;0.90;;;;;;;25.74;37.74;97781.59;6893235;28;20208;-82
2023/08/03 11:02:13;;;;;;;3.60;0.90;;;;;;;25.68;37.94;97783.75;6894157;28;20240;-81
2023/08/03 11:05:36;;;;;;;1.20;1.10;;;;;;;25.70;37.40;97755.78;6893593;28;20232;-81
2023/08/03 11:08:57;;;;;;;1.47;1.10;;;;;;;26.00;37.47;97790.69;6894202;28;20235;-81
2023/08/03 11:12:19;;;;;;;1.97;0.90;;;;;;;25.65;37.74;97789.09;6893891;28;20243;-82
2023/08/03 11:15:42;;;;;;;3.20;1.20;;;;;;;26.25;37.18;97789.81;6892457;28;20209;-82
2023/08/03 11:19:04;;;;;;;1.20;0.90;;;;;;;26.57;35.99;97781.75;6893290;28;20212;-82
2023/08/03 11:22:26;;;;;;;1.70;1.03;;;;;;;26.13;35.78;97776.66;6892287;28;20780;-81
2023/08/03 11:25:47;;;;;;;1.67;1.37;;;;;;;25.49;36.80;97736.31;6891304;28;20254;-82
2023/08/03 11:29:09;;;;;;;1.03;0.90;;;;;;;27.26;34.82;97794.00;6892959;28;20341;-82
2023/08/03 11:32:32;;;;;;;1.20;1.10;;;;;;;27.49;34.12;97767.59;6892082;28;20275;-81
2023/08/03 11:35:55;;;;;;;1.50;0.90;;;;;;;27.74;34.19;97791.50;6899162;28;20248;-82
2023/08/03 11:39:17;;;;;;;3.57;1.37;;;;;;;26.71;35.22;97776.78;6907657;28;20316;-81
2023/08/03 11:42:40;;;;;;;1.47;0.83;;;;;;;26.68;35.74;97783.00;6892202;28;20320;-81
2023/08/03 11:46:01;;;;;;;1.27;0.83;;;;;;;26.30;36.38;97790.44;6895617;28;20270;-82
2023/08/03 11:49:25;;;;;;;3.33;1.60;;;;;;;26.65;36.37;97791.94;6902803;28;20295;-81
2023/08/03 11:52:46;;;;;;;1.90;1.13;;;;;;;25.89;37.36;97790.19;6903852;28;20223;-81
2023/08/03 11:56:09;;;;;;;2.50;1.10;;;;;;;27.25;35.88;97777.75;6904727;28;20259;-82
2023/08/03 11:59:30;;;;;;;2.97;1.00;;;;;;;28.20;35.11;97777.34;6905744;28;20317;-82
2023/08/03 12:02:52;;;;;;;1.17;0.90;;;;;;;27.96;34.71;97793.91;6930585;28;20688;-82
2023/08/03 12:06:15;;;;;;;2.23;1.00;;;;;;;27.95;34.28;97797.84;6930736;28;20224;-82
2023/08/03 12:09:39;;;;;;;1.00;0.67;;;;;;;28.20;34.21;97796.75;6929861;28;20573;-81
2023/08/03 12:13:01;;;;;;;1.67;1.00;;;;;;;28.73;33.11;97804.94;6926925;28;20208;-81
2023/08/03 12:16:22;;;;;;;2.73;1.47;;;;;;;27.99;33.53;97793.25;6925055;28;20240;-85
2023/08/03 12:19:43;;;;;;;1.63;0.77;;;;;;;28.49;32.51;97781.94;6920391;28;20235;-84
2023/08/03 12:23:06;;;;;;;1.90;0.90;;;;;;;28.91;32.51;97786.91;6924840;28;20253;-83
2023/08/03 12:26:28;;;;;;;1.33;0.93;;;;;;;28.56;32.06;97794.09;6920067;28;20324;-82
2023/08/03 12:29:49;;;;;;;1.00;0.90;;;;;;;27.79;32.98;97809.91;6876499;28;20220;-83
2023/08/03 12:33:11;;;;;;;1.67;0.90;;;;;;;28.66;31.90;97796.38;6871268;28;20339;-85
2023/08/03 12:36:33;;;;;;;2.97;0.77;;;;;;;28.61;32.83;97801.38;6878440;28;20210;-81
2023/08/03 12:39:55;;;;;;;0.90;0.80;;;;;;;27.66;33.32;97797.13;6898272;28;20372;-81
2023/08/03 12:43:17;;;;;;;1.80;1.17;;;;;;;28.17;32.47;97791.91;6898487;28;20200;-80
2023/08/03 12:46:38;;;;;;;1.47;1.03;;;;;;;28.93;31.78;97797.66;6898233;28;20696;-82
2023/08/03 12:50:00;;;;;;;1.00;0.63;;;;;;;28.35;32.95;97804.41;6897685;28;20252;-81
2023/08/03 12:53:21;;;;;;;1.97;0.97;;;;;;;27.62;32.72;97780.38;6898509;28;20281;-82
2023/08/03 12:56:46;;;;;;;1.53;1.07;;;;;;;28.35;32.35;97817.47;6898638;28;20281;-82
2023/08/03 13:00:08;;;;;;;2.17;0.93;;;;;;;28.61;31.74;97810.47;6897890;28;20278;-81
2023/08/03 13:03:30;;;;;;;2.00;0.80;;;;;;;28.30;32.98;97824.03;6907595;28;20678;-83
2023/08/03 13:06:51;;;;;;;1.53;1.00;;;;;;;28.98;31.20;97822.44;6885678;28;20193;-83
2023/08/03 13:10:14;;;;;;;1.30;0.80;;;;;;;29.00;31.80;97832.03;6897201;28;20614;-84
2023/08/03 13:13:37;;;;;;;1.37;1.00;;;;;;;29.70;30.82;97820.38;6892709;28;20301;-84
2023/08/03 13:16:59;;;;;;;1.23;1.13;;;;;;;28.93;32.24;97820.69;6896355;28;20209;-84
2023/08/03 13:20:20;;;;;;;2.73;1.23;;;;;;;28.84;32.28;97822.75;6917948;28;20238;-82
2023/08/03 13:23:42;;;;;;;3.13;1.43;;;;;;;29.02;32.94;97826.94;6917513;28;20202;-83
2023/08/03 13:27:12;;;;;;;1.10;0.90;;;;;;;29.65;30.98;97842.03;6916343;28;20251;-83
2023/08/03 13:30:35;;;;;;;1.90;0.77;;;;;;;28.57;32.60;97842.88;6917476;28;20238;-84
2023/08/03 13:33:56;;;;;;;2.93;0.97;;;;;;;28.99;32.31;97830.44;6917212;28;20240;-83
2023/08/03 13:37:18;;;;;;;2.80;1.10;;;;;;;28.22;33.89;97851.88;6916253;28;20694;-84
2023/08/03 13:40:39;;;;;;;1.43;1.00;;;;;;;28.41;32.67;97853.00;6916978;28;20363;-83
2023/08/03 13:44:01;;;;;;;3.93;0.73;;;;;;;28.45;33.21;97836.47;6917926;28;20259;-83
2023/08/03 13:47:24;;;;;;;1.50;1.17;;;;;;;28.58;33.00;97835.34;6916415;28;20297;-83
2023/08/03 13:50:45;;;;;;;2.03;1.13;;;;;;;28.31;32.54;97813.78;6909231;28;20259;-83
2023/08/03 13:54:08;;;;;;;2.17;1.17;;;;;;;29.37;31.29;97814.16;6889768;28;20766;-83
2023/08/03 13:57:30;;;;;;;1.40;0.80;;;;;;;29.27;31.99;97831.34;6889904;28;20730;-84
2023/08/03 14:00:52;;;;;;;1.40;0.90;;;;;;;29.82;30.99;97825.06;6891120;28;20768;-84
2023/08/03 14:04:16;;;;;;;1.87;0.90;;;;;;;30.08;31.73;97823.44;6897502;28;20216;-84
2023/08/03 14:07:37;;;;;;;0.80;0.77;;;;;;;29.89;31.00;97814.97;6894160;28;20273;-84
2023/08/03 14:10:59;;;;;;;1.30;0.80;;;;;;;29.86;31.03;97825.97;6902341;28;20738;-83
2023/08/03 14:14:20;;;;;;;1.80;1.17;;;;;;;29.05;32.51;97828.22;6898414;28;20305;-83
2023/08/03 14:17:42;;;;;;;1.73;1.10;;;;;;;28.62;32.80;97830.72;6902428;28;20210;-81
2023/08/03 14:21:05;;;;;;;1.77;1.00;;;;;;;29.66;32.32;97815.88;6911509;28;20294;-80
2023/08/03 14:24:27;;;;;;;1.43;1.00;;;;;;;29.10;31.13;97753.84;6895035;28;20321;-81
2023/08/03 14:27:52;;;;;;;0.80;0.80;;;;;;;29.58;31.81;97830.69;6889294;28;20247;-81
2023/08/03 14:31:13;;;;;;;2.33;0.83;;;;;;;28.98;32.61;97831.59;6868123;28;20712;-81
2023/08/03 14:34:35;;;;;;;1.93;0.60;;;;;;;28.81;31.92;97845.66;6867709;28;20358;-81
2023/08/03 14:37:57;;;;;;;1.90;0.70;;;;;;;28.04;33.08;97854.00;6872485;28;20202;-80
2023/08/03 14:41:20;;;;;;;0.70;0.70;;;;;;;28.12;32.08;97844.78;6893467;28;20311;-81
2023/08/03 14:44:41;;;;;;;1.20;0.80;;;;;;;28.16;31.96;97851.28;6894677;28;20275;-81
2023/08/03 14:48:03;;;;;;;1.00;0.70;;;;;;;28.25;32.01;97856.72;6893789;28;20354;-81
2023/08/03 14:51:24;;;;;;;1.67;0.73;;;;;;;28.66;31.31;97842.75;6894633;28;20320;-81
2023/08/03 14:54:51;;;;;;;1.83;0.70;;;;;;;28.17;31.50;97841.81;6894611;28;20213;-85
2023/08/03 14:58:12;;;;;;;0.50;0.50;;;;;;;27.81;31.78;97777.94;6891704;28;20706;-85
2023/08/03 15:01:34;;;;;;;1.80;0.80;;;;;;;27.87;32.40;97840.31;6893616;28;20235;-81
2023/08/03 15:04:55;;;;;;;1.20;0.60;;;;;;;28.33;31.73;97844.72;6896329;28;20720;-82
2023/08/03 15:08:17;;;;;;;2.63;1.17;;;;;;;28.07;32.58;97842.22;6895513;28;20300;-81
2023/08/03 15:11:40;;;;;;;0.60;0.60;;;;;;;27.97;32.59;97825.22;6894511;28;20288;-81
2023/08/03 15:15:01;;;;;;;1.20;0.63;;;;;;;27.88;32.60;97850.25;6894421;28;20228;-82
2023/08/03 15:18:23;;;;;;;1.67;0.60;;;;;;;28.19;32.51;97852.56;6893872;28;20239;-82
2023/08/03 15:21:44;;;;;;;2.77;1.40;;;;;;;28.05;36.77;97838.16;6896131;28;20282;-83
2023/08/03 15:25:06;;;;;;;1.03;0.80;;;;;;;28.75;35.56;97830.41;6900456;28;20308;-83
2023/08/03 15:28:29;;;;;;;3.40;1.07;;;;;;;29.10;35.96;97834.34;6925359;28;20299;-82
2023/08/03 15:31:51;;;;;;;2.47;1.13;;;;;;;29.05;34.95;97839.31;6916563;28;20282;-82
2023/08/03 15:35:12;;;;;;;6.73;1.67;;;;;;;29.17;35.01;97840.13;6893845;28;20205;-86
2023/08/03 15:38:36;;;;;;;6.17;1.60;;;;;;;28.09;35.39;97809.44;6894071;28;20247;-85
2023/08/03 15:41:59;;;;;;;1.70;0.97;;;;;;;28.34;31.77;97843.56;6894393;28;20313;-84
2023/08/03 15:45:23;;;;;;;0.97;0.57;;;;;;;28.79;31.24;97833.28;6894265;28;20324;-84
2023/08/03 15:48:44;;;;;;;2.57;0.80;;;;;;;28.24;32.03;97836.50;6894691;28;20772;-83
2023/08/03 15:52:06;;;;;;;0.50;0.50;;;;;;;28.07;32.05;97814.50;6893850;28;20290;-84
2023/08/03 15:55:28;;;;;;;0.67;0.67;;;;;;;27.89;33.05;97846.31;6902007;28;20357;-84